Time;durP1;ratioP1;P1;durP2;ratioP2;P2;SDS_P1;SDS_P2;PMS_P1;PMS_P2;Temp;Humidity;BMP_temperature;BMP_pressure;BME280_temperature;BME280_humidity;BME280_pressure;Samples;Min_cycle;Max_cycle;Signal;HPM_P1;HPM_P2
2024/03/26 00:00:26;;;;;;;;;;;;;;;9.35;43.39;98110.19;4149556;28;19963;-71
2024/03/26 00:02:26;;;;;;;;;;;;;;;9.28;43.63;98118.09;4167013;28;19909;-71
2024/03/26 00:04:27;;;;;;;;;;;;;;;9.25;43.77;98117.63;4170932;28;19913;-71
2024/03/26 00:06:27;;;;;;;;;;;;;;;9.44;43.42;98113.56;4174983;28;19909;-71
2024/03/26 00:08:28;;;;;;;;;;;;;;;9.27;43.88;98118.25;4172032;28;19991;-71
2024/03/26 00:10:28;;;;;;;;;;;;;;;9.17;44.30;98111.34;4167581;28;19917;-71
2024/03/26 00:12:28;;;;;;;;;;;;;;;9.20;44.26;98104.84;4165712;28;19908;-71
2024/03/26 00:14:29;;;;;;;;;;;;;;;9.17;44.51;98102.56;4166063;28;19913;-71
2024/03/26 00:16:29;;;;;;;;;;;;;;;9.18;44.41;98098.88;4148632;28;20440;-71
2024/03/26 00:18:30;;;;;;;;;;;;;;;9.12;44.75;98108.44;4166436;28;19909;-71
2024/03/26 00:20:30;;;;;;;;;;;;;;;9.21;44.47;98093.16;4167478;28;19916;-70
2024/03/26 00:22:30;;;;;;;;;;;;;;;9.17;44.59;98102.56;4168785;28;19905;-71
2024/03/26 00:24:31;;;;;;;;;;;;;;;9.24;44.31;98099.97;4165667;28;19936;-70
2024/03/26 00:26:32;;;;;;;;;;;;;;;9.33;44.18;98088.22;4166194;28;20328;-71
2024/03/26 00:28:32;;;;;;;;;;;;;;;9.30;44.17;98089.41;4165488;28;20316;-71
2024/03/26 00:30:32;;;;;;;;;;;;;;;9.28;44.34;98085.25;4166164;28;19908;-71
2024/03/26 00:32:33;;;;;;;;;;;;;;;9.27;44.24;98086.25;4164264;28;20008;-73
2024/03/26 00:34:34;;;;;;;;;;;;;;;9.31;44.25;98091.03;4147795;28;19910;-71
2024/03/26 00:36:34;;;;;;;;;;;;;;;9.21;44.46;98090.50;4165579;28;19909;-71
2024/03/26 00:38:34;;;;;;;;;;;;;;;9.13;44.61;98088.75;4147592;28;20687;-70
2024/03/26 00:40:35;;;;;;;;;;;;;;;9.08;44.89;98090.31;4165159;28;19960;-71
2024/03/26 00:42:35;;;;;;;;;;;;;;;9.02;44.96;98089.22;4147923;28;19913;-70
2024/03/26 00:44:35;;;;;;;;;;;;;;;8.98;45.18;98090.56;4165200;28;20434;-70
2024/03/26 00:46:36;;;;;;;;;;;;;;;9.11;44.90;98088.09;4165418;28;19920;-70
2024/03/26 00:48:36;;;;;;;;;;;;;;;9.09;45.31;98076.78;4164551;28;19909;-70
2024/03/26 00:50:36;;;;;;;;;;;;;;;9.07;45.46;98081.47;4165652;28;19916;-71
2024/03/26 00:52:37;;;;;;;;;;;;;;;9.03;45.40;98074.88;4165590;28;19909;-70
2024/03/26 00:54:37;;;;;;;;;;;;;;;9.00;45.58;98078.75;4165706;28;19909;-71
2024/03/26 00:56:38;;;;;;;;;;;;;;;8.95;45.98;98074.97;4165945;28;20274;-70
2024/03/26 00:58:38;;;;;;;;;;;;;;;8.95;46.17;98078.44;4165658;28;19916;-71
2024/03/26 01:00:38;;;;;;;;;;;;;;;9.00;46.18;98072.56;4165823;28;20003;-70
2024/03/26 01:02:39;;;;;;;;;;;;;;;9.04;46.03;98079.19;4165362;28;19920;-71
2024/03/26 01:04:39;;;;;;;;;;;;;;;9.07;45.93;98080.66;4167403;28;20425;-71
2024/03/26 01:06:40;;;;;;;;;;;;;;;9.08;45.88;98079.66;4173564;28;19991;-72
2024/03/26 01:08:40;;;;;;;;;;;;;;;8.95;46.59;98082.97;4155307;28;19921;-71
2024/03/26 01:10:41;;;;;;;;;;;;;;;9.02;46.93;98078.53;4157738;28;19913;-72
2024/03/26 01:12:41;;;;;;;;;;;;;;;9.07;46.54;98073.47;4159533;28;20408;-71
2024/03/26 01:14:42;;;;;;;;;;;;;;;9.07;46.56;98078.00;4173918;28;20331;-71
2024/03/26 01:16:42;;;;;;;;;;;;;;;8.85;47.31;98073.41;4166381;28;19952;-70
2024/03/26 01:18:42;;;;;;;;;;;;;;;8.57;48.15;98078.47;4169307;28;19909;-72
2024/03/26 01:20:43;;;;;;;;;;;;;;;8.30;48.50;98072.69;4177222;28;19913;-71
2024/03/26 01:22:43;;;;;;;;;;;;;;;8.10;49.34;98061.69;4177312;28;19908;-72
2024/03/26 01:24:44;;;;;;;;;;;;;;;7.96;49.70;98061.44;4177781;28;20181;-71
2024/03/26 01:26:44;;;;;;;;;;;;;;;7.79;49.97;98065.22;4178455;28;19913;-71
2024/03/26 01:28:44;;;;;;;;;;;;;;;7.89;49.60;98060.50;4177509;28;19913;-72
2024/03/26 01:30:44;;;;;;;;;;;;;;;7.89;49.63;98064.97;4177414;28;19909;-73
2024/03/26 01:32:45;;;;;;;;;;;;;;;8.14;48.99;98060.31;4177542;28;19909;-72
2024/03/26 01:34:45;;;;;;;;;;;;;;;8.15;49.04;98056.66;4178052;28;19919;-72
2024/03/26 01:36:45;;;;;;;;;;;;;;;7.98;49.12;98050.63;4178501;28;19913;-73
2024/03/26 01:38:47;;;;;;;;;;;;;;;7.90;49.27;98056.81;4178220;28;20050;-72
2024/03/26 01:40:48;;;;;;;;;;;;;;;7.86;49.39;98054.69;4178110;28;19980;-72
2024/03/26 01:42:48;;;;;;;;;;;;;;;7.92;49.48;98044.19;4178059;28;19925;-71
2024/03/26 01:44:49;;;;;;;;;;;;;;;7.83;49.52;98044.41;4177795;28;20561;-72
2024/03/26 01:46:49;;;;;;;;;;;;;;;7.79;49.69;98035.94;4177692;28;20079;-73
2024/03/26 01:48:49;;;;;;;;;;;;;;;7.61;50.29;98026.41;4177987;28;19909;-72
2024/03/26 01:50:50;;;;;;;;;;;;;;;7.52;50.53;98022.16;4168616;28;19916;-71
2024/03/26 01:52:51;;;;;;;;;;;;;;;7.28;51.40;98018.59;4164558;28;19948;-70
2024/03/26 01:54:51;;;;;;;;;;;;;;;7.21;51.99;98004.34;4164502;28;19954;-71
2024/03/26 01:56:52;;;;;;;;;;;;;;;7.17;52.07;97998.56;4164032;28;19917;-71
2024/03/26 01:58:52;;;;;;;;;;;;;;;7.16;52.00;97999.56;4164205;28;20265;-70
2024/03/26 02:00:52;;;;;;;;;;;;;;;7.18;52.00;97999.38;4164745;28;19932;-71
2024/03/26 02:02:53;;;;;;;;;;;;;;;7.27;51.82;97997.50;4149212;28;19940;-71
2024/03/26 02:04:53;;;;;;;;;;;;;;;7.50;51.10;98005.53;4169757;28;19970;-71
2024/03/26 02:06:53;;;;;;;;;;;;;;;7.60;50.54;97997.34;4171668;28;20343;-71
2024/03/26 02:08:55;;;;;;;;;;;;;;;7.76;50.19;97997.22;4164145;28;19917;-71
2024/03/26 02:10:56;;;;;;;;;;;;;;;7.82;50.03;97995.69;4163984;28;19912;-71
2024/03/26 02:12:57;;;;;;;;;;;;;;;7.76;49.99;97996.38;4163975;28;19905;-71
2024/03/26 02:14:57;;;;;;;;;;;;;;;7.69;50.20;97990.13;4164273;28;19908;-71
2024/03/26 02:16:58;;;;;;;;;;;;;;;7.57;50.70;97993.19;4165051;28;20004;-71
2024/03/26 02:18:59;;;;;;;;;;;;;;;7.72;50.30;97992.44;4167579;28;19913;-71
2024/03/26 02:20:59;;;;;;;;;;;;;;;7.89;49.83;97996.63;4176852;28;19913;-71
2024/03/26 02:23:02;;;;;;;;;;;;;;;7.94;49.72;97999.56;4181883;28;19909;-72
2024/03/26 02:25:03;;;;;;;;;;;;;;;8.00;49.53;97991.91;4179125;28;19917;-72
2024/03/26 02:27:03;;;;;;;;;;;;;;;7.91;49.73;97999.97;4178796;28;19909;-71
2024/03/26 02:29:04;;;;;;;;;;;;;;;7.63;50.36;97989.84;4175374;28;19913;-70
2024/03/26 02:31:04;;;;;;;;;;;;;;;7.83;50.07;97999.19;4164837;28;19966;-71
2024/03/26 02:33:04;;;;;;;;;;;;;;;7.92;49.75;98006.94;4164346;28;19979;-71
2024/03/26 02:35:05;;;;;;;;;;;;;;;7.95;49.65;97997.75;4164000;28;20702;-71
2024/03/26 02:37:05;;;;;;;;;;;;;;;7.92;49.67;97990.97;4163935;28;19912;-70
2024/03/26 02:39:05;;;;;;;;;;;;;;;7.59;50.67;97980.56;4146724;28;20377;-70
2024/03/26 02:41:06;;;;;;;;;;;;;;;7.55;51.04;97983.72;4163652;28;19916;-70
2024/03/26 02:43:08;;;;;;;;;;;;;;;7.74;50.46;97988.59;4173858;28;20384;-70
2024/03/26 02:45:08;;;;;;;;;;;;;;;7.73;50.57;98002.09;4176762;28;20364;-71
2024/03/26 02:47:09;;;;;;;;;;;;;;;7.68;51.25;98004.44;4164954;28;19909;-71
2024/03/26 02:49:09;;;;;;;;;;;;;;;7.72;51.56;97995.91;4164901;28;19931;-70
2024/03/26 02:51:09;;;;;;;;;;;;;;;7.77;51.84;97985.59;4177751;28;19974;-71
2024/03/26 02:53:09;;;;;;;;;;;;;;;7.91;51.47;97989.31;4163508;28;20538;-72
2024/03/26 02:55:10;;;;;;;;;;;;;;;7.88;52.01;97983.53;4163414;28;20415;-71
2024/03/26 02:57:10;;;;;;;;;;;;;;;7.86;52.11;97973.03;4167140;28;20281;-71
2024/03/26 02:59:10;;;;;;;;;;;;;;;7.79;51.98;97978.25;4179551;28;20372;-72
2024/03/26 03:01:12;;;;;;;;;;;;;;;7.56;52.10;97975.56;4179899;28;19962;-71
2024/03/26 03:03:12;;;;;;;;;;;;;;;7.42;52.55;97981.66;4179359;28;20303;-70
2024/03/26 03:05:12;;;;;;;;;;;;;;;7.17;52.69;97977.28;4179954;28;19948;-70
2024/03/26 03:07:13;;;;;;;;;;;;;;;7.22;52.68;97979.44;4161832;28;19909;-72
2024/03/26 03:09:13;;;;;;;;;;;;;;;7.38;52.24;97970.53;4178264;28;19964;-71
2024/03/26 03:11:13;;;;;;;;;;;;;;;7.30;52.15;97966.09;4179734;28;19908;-69
2024/03/26 03:13:14;;;;;;;;;;;;;;;6.93;52.84;97959.63;4179929;28;19923;-70
2024/03/26 03:15:14;;;;;;;;;;;;;;;6.84;53.40;97960.66;4179717;28;19935;-70
2024/03/26 03:17:14;;;;;;;;;;;;;;;6.85;53.64;97954.34;4179743;28;19948;-70
2024/03/26 03:19:15;;;;;;;;;;;;;;;7.01;53.20;97959.59;4161677;28;19909;-69
2024/03/26 03:21:15;;;;;;;;;;;;;;;7.18;52.76;97951.53;4179514;28;19916;-70
2024/03/26 03:23:16;;;;;;;;;;;;;;;7.03;52.77;97944.31;4179678;28;19915;-70
2024/03/26 03:25:16;;;;;;;;;;;;;;;6.99;52.95;97948.31;4179243;28;19920;-70
2024/03/26 03:27:16;;;;;;;;;;;;;;;7.14;52.59;97955.56;4179464;28;19909;-70
2024/03/26 03:29:16;;;;;;;;;;;;;;;7.14;52.52;97950.25;4179332;28;20477;-70
2024/03/26 03:31:17;;;;;;;;;;;;;;;7.36;52.03;97947.81;4180049;28;19909;-70
2024/03/26 03:33:17;;;;;;;;;;;;;;;7.30;51.90;97950.16;4178953;28;19999;-70
2024/03/26 03:35:18;;;;;;;;;;;;;;;7.22;52.42;97954.69;4146956;28;19910;-70
2024/03/26 03:37:19;;;;;;;;;;;;;;;7.28;52.19;97948.69;4165505;28;19913;-70
2024/03/26 03:39:19;;;;;;;;;;;;;;;7.36;51.91;97953.13;4165065;28;20376;-70
2024/03/26 03:41:20;;;;;;;;;;;;;;;7.41;51.91;97950.75;4163142;28;19916;-70
2024/03/26 03:43:20;;;;;;;;;;;;;;;7.51;51.66;97951.34;4164586;28;19940;-69
2024/03/26 03:45:21;;;;;;;;;;;;;;;7.48;51.76;97944.56;4172072;28;19935;-70
2024/03/26 03:47:24;;;;;;;;;;;;;;;7.34;52.30;97934.69;4173781;28;19913;-69
2024/03/26 03:49:24;;;;;;;;;;;;;;;7.20;52.53;97941.56;4168824;28;19909;-70
2024/03/26 03:51:26;;;;;;;;;;;;;;;7.20;52.52;97943.41;4163969;28;20373;-70
2024/03/26 03:53:27;;;;;;;;;;;;;;;7.26;52.54;97943.53;4162646;28;20368;-69
2024/03/26 03:55:29;;;;;;;;;;;;;;;7.24;52.59;97939.38;4162894;28;19909;-68
2024/03/26 03:57:30;;;;;;;;;;;;;;;7.16;52.75;97941.09;4163461;28;19999;-69
2024/03/26 03:59:30;;;;;;;;;;;;;;;7.06;53.13;97944.97;4163944;28;19917;-70
2024/03/26 04:01:30;;;;;;;;;;;;;;;6.93;53.33;97946.34;4163195;28;20004;-70
2024/03/26 04:03:31;;;;;;;;;;;;;;;7.20;53.04;97952.19;4163254;28;19913;-69
2024/03/26 04:05:35;;;;;;;;;;;;;;;7.37;52.38;97950.28;4162455;28;19908;-69
2024/03/26 04:07:35;;;;;;;;;;;;;;;7.54;52.06;97945.69;4165003;28;20650;-69
2024/03/26 04:09:36;;;;;;;;;;;;;;;7.57;51.93;97942.66;4164001;28;19917;-70
2024/03/26 04:11:36;;;;;;;;;;;;;;;7.58;51.89;97936.34;4165945;28;19920;-69
2024/03/26 04:13:37;;;;;;;;;;;;;;;7.33;52.69;97936.50;4169614;28;19909;-69
2024/03/26 04:15:40;;;;;;;;;;;;;;;7.27;52.97;97939.88;4165800;28;19984;-70
2024/03/26 04:17:41;;;;;;;;;;;;;;;7.17;53.17;97928.66;4165439;28;19909;-70
2024/03/26 04:19:43;;;;;;;;;;;;;;;7.12;53.49;97929.16;4165518;28;19960;-68
2024/03/26 04:21:43;;;;;;;;;;;;;;;7.10;53.52;97925.00;4165718;28;19915;-69
2024/03/26 04:23:44;;;;;;;;;;;;;;;6.98;53.56;97925.44;4165844;28;19952;-70
2024/03/26 04:25:52;;;;;;;;;;;;;;;7.00;55.42;97928.72;4169335;28;20575;-69
2024/03/26 04:27:53;;;;;;;;;;;;;;;7.27;54.74;97920.44;4165515;28;19967;-70
2024/03/26 04:29:53;;;;;;;;;;;;;;;7.30;54.54;97922.75;4165564;28;19909;-65
2024/03/26 04:31:53;;;;;;;;;;;;;;;7.39;54.06;97920.84;4167922;28;19967;-69
2024/03/26 04:33:54;;;;;;;;;;;;;;;7.41;53.81;97918.84;4167999;28;19908;-69
2024/03/26 04:35:54;;;;;;;;;;;;;;;7.37;54.00;97918.38;4167636;28;19939;-69
2024/03/26 04:37:54;;;;;;;;;;;;;;;7.46;54.90;97916.50;4164708;28;19909;-69
2024/03/26 04:39:55;;;;;;;;;;;;;;;7.41;55.73;97914.38;4165673;28;20330;-70
2024/03/26 04:41:56;;;;;;;;;;;;;;;7.44;55.33;97911.34;4165751;28;19916;-71
2024/03/26 04:43:56;;;;;;;;;;;;;;;7.36;55.88;97918.56;4158587;28;19913;-69
2024/03/26 04:45:57;;;;;;;;;;;;;;;7.38;55.21;97919.19;4165766;28;19995;-69
2024/03/26 04:47:57;;;;;;;;;;;;;;;7.28;55.66;97920.25;4164729;28;19964;-69
2024/03/26 04:49:58;;;;;;;;;;;;;;;7.10;56.25;97917.03;4165078;28;19959;-70
2024/03/26 04:51:58;;;;;;;;;;;;;;;7.13;56.38;97924.66;4165195;28;19924;-70
2024/03/26 04:53:58;;;;;;;;;;;;;;;7.19;56.40;97918.66;4182340;28;19920;-70
2024/03/26 04:55:59;;;;;;;;;;;;;;;7.34;56.05;97916.06;4180754;28;19912;-71
2024/03/26 04:57:59;;;;;;;;;;;;;;;7.47;55.52;97908.34;4161632;28;20121;-70
2024/03/26 04:59:59;;;;;;;;;;;;;;;7.45;55.70;97909.53;4165253;28;19936;-70
2024/03/26 05:02:00;;;;;;;;;;;;;;;7.46;55.29;97917.31;4181554;28;19931;-71
2024/03/26 05:04:01;;;;;;;;;;;;;;;7.42;55.06;97907.22;4159058;28;20008;-71
2024/03/26 05:06:01;;;;;;;;;;;;;;;7.35;55.35;97904.44;4173647;28;19959;-70
2024/03/26 05:08:01;;;;;;;;;;;;;;;7.32;55.24;97905.63;4159671;28;19921;-70
2024/03/26 05:10:11;;;;;;;;;;;;;;;7.22;55.33;97905.03;4160630;28;19955;-69
2024/03/26 05:12:11;;;;;;;;;;;;;;;7.14;54.91;97911.19;4164303;28;19909;-70
2024/03/26 05:14:11;;;;;;;;;;;;;;;7.28;54.63;97912.28;4164405;28;20002;-70
2024/03/26 05:16:12;;;;;;;;;;;;;;;7.28;54.96;97914.94;4164534;28;20444;-70
2024/03/26 05:18:12;;;;;;;;;;;;;;;7.22;54.14;97907.69;4163088;28;19909;-70
2024/03/26 05:20:13;;;;;;;;;;;;;;;7.15;53.94;97910.19;4164227;28;20254;-71
2024/03/26 05:22:20;;;;;;;;;;;;;;;6.88;54.41;97900.91;4176986;28;19909;-72
2024/03/26 05:24:20;;;;;;;;;;;;;;;6.93;54.60;97906.50;4168986;28;19955;-70
2024/03/26 05:26:20;;;;;;;;;;;;;;;6.85;54.54;97903.91;4164868;28;19909;-70
2024/03/26 05:28:20;;;;;;;;;;;;;;;7.00;54.14;97910.13;4163952;28;19912;-69
2024/03/26 05:30:21;;;;;;;;;;;;;;;7.18;53.98;97909.00;4164210;28;19916;-70
2024/03/26 05:32:21;;;;;;;;;;;;;;;7.30;53.32;97902.31;4147203;28;19913;-69
2024/03/26 05:34:22;;;;;;;;;;;;;;;7.30;53.21;97904.97;4164347;28;19913;-70
2024/03/26 05:36:22;;;;;;;;;;;;;;;7.47;52.98;97903.03;4164334;28;19956;-70
2024/03/26 05:38:22;;;;;;;;;;;;;;;7.43;52.80;97911.53;4165002;28;19955;-70
2024/03/26 05:40:23;;;;;;;;;;;;;;;7.44;52.79;97915.84;4173987;28;20191;-71
2024/03/26 05:42:23;;;;;;;;;;;;;;;7.48;52.74;97914.47;4173024;28;19951;-70
2024/03/26 05:44:23;;;;;;;;;;;;;;;7.44;52.89;97913.19;4170266;28;19913;-70
2024/03/26 05:46:24;;;;;;;;;;;;;;;7.51;52.63;97914.13;4172029;28;20197;-72
2024/03/26 05:48:24;;;;;;;;;;;;;;;7.53;52.50;97906.81;4175682;28;19920;-76
2024/03/26 05:50:25;;;;;;;;;;;;;;;7.51;52.51;97898.19;4175306;28;19913;-71
2024/03/26 05:52:26;;;;;;;;;;;;;;;7.32;52.92;97902.16;4175011;28;19909;-71
2024/03/26 05:54:26;;;;;;;;;;;;;;;7.22;52.99;97894.38;4175415;28;20362;-74
2024/03/26 05:56:26;;;;;;;;;;;;;;;7.25;53.10;97901.19;4175252;28;19909;-70
2024/03/26 05:58:27;;;;;;;;;;;;;;;7.22;53.18;97897.03;4173967;28;19915;-73
2024/03/26 06:00:27;;;;;;;;;;;;;;;7.36;52.87;97899.97;4170393;28;19912;-70
2024/03/26 06:02:27;;;;;;;;;;;;;;;7.47;52.63;97897.72;4164132;28;20000;-71
2024/03/26 06:04:28;;;;;;;;;;;;;;;7.54;52.22;97887.19;4163635;28;19966;-71
2024/03/26 06:06:28;;;;;;;;;;;;;;;7.61;52.12;97898.78;4164069;28;19909;-71
2024/03/26 06:08:28;;;;;;;;;;;;;;;7.62;52.00;97892.44;4170475;28;20389;-71
2024/03/26 06:10:29;;;;;;;;;;;;;;;7.60;52.09;97883.81;4180740;28;20561;-70
2024/03/26 06:12:29;;;;;;;;;;;;;;;7.61;52.22;97888.13;4179895;28;19923;-70
2024/03/26 06:14:29;;;;;;;;;;;;;;;7.62;52.33;97884.47;4180411;28;19939;-70
2024/03/26 06:16:31;;;;;;;;;;;;;;;7.57;52.17;97886.81;4180631;28;19919;-71
2024/03/26 06:18:31;;;;;;;;;;;;;;;7.75;51.94;97885.69;4180091;28;19909;-69
2024/03/26 06:20:31;;;;;;;;;;;;;;;7.65;52.25;97894.72;4180516;28;19935;-70
2024/03/26 06:22:32;;;;;;;;;;;;;;;7.64;52.30;97878.97;4180314;28;20403;-70
2024/03/26 06:24:32;;;;;;;;;;;;;;;7.54;52.65;97883.69;4162905;28;19920;-73
2024/03/26 06:26:32;;;;;;;;;;;;;;;7.45;52.87;97877.63;4179664;28;19912;-73
2024/03/26 06:28:33;;;;;;;;;;;;;;;7.52;52.86;97878.56;4179508;28;19916;-71
2024/03/26 06:30:33;;;;;;;;;;;;;;;7.67;52.23;97870.63;4179790;28;20295;-70
2024/03/26 06:32:34;;;;;;;;;;;;;;;7.37;53.07;97875.03;4179949;28;19940;-71
2024/03/26 06:34:35;;;;;;;;;;;;;;;7.34;52.93;97877.03;4179488;28;19909;-71
2024/03/26 06:36:36;;;;;;;;;;;;;;;7.31;53.23;97869.41;4179516;28;19909;-70
2024/03/26 06:38:36;;;;;;;;;;;;;;;7.40;52.96;97874.66;4178971;28;19971;-70
2024/03/26 06:40:38;;;;;;;;;;;;;;;7.31;52.83;97869.41;4180414;28;19974;-69
2024/03/26 06:42:38;;;;;;;;;;;;;;;7.38;52.90;97876.66;4171268;28;19908;-69
2024/03/26 06:44:38;;;;;;;;;;;;;;;7.18;53.32;97875.31;4179705;28;19919;-70
2024/03/26 06:46:39;;;;;;;;;;;;;;;7.25;53.20;97878.09;4180104;28;19963;-69
2024/03/26 06:48:39;;;;;;;;;;;;;;;7.27;53.08;97877.91;4179725;28;20345;-71
2024/03/26 06:50:40;;;;;;;;;;;;;;;7.61;52.45;97881.97;4181482;28;19909;-70
2024/03/26 06:52:40;;;;;;;;;;;;;;;7.51;52.45;97865.47;4181430;28;20000;-71
2024/03/26 06:54:42;;;;;;;;;;;;;;;7.55;52.70;97864.09;4163261;28;19909;-71
2024/03/26 06:56:42;;;;;;;;;;;;;;;7.57;52.49;97864.75;4172591;28;19999;-70
2024/03/26 06:58:45;;;;;;;;;;;;;;;7.49;52.87;97860.31;4161850;28;19916;-69
2024/03/26 07:00:45;;;;;;;;;;;;;;;7.35;52.97;97867.22;4172964;28;20384;-68
2024/03/26 07:02:45;;;;;;;;;;;;;;;7.33;53.07;97864.75;4180272;28;19979;-71
2024/03/26 07:04:46;;;;;;;;;;;;;;;7.53;52.47;97856.28;4179237;28;19982;-73
2024/03/26 07:06:46;;;;;;;;;;;;;;;7.40;53.08;97854.25;4183037;28;19954;-70
2024/03/26 07:08:47;;;;;;;;;;;;;;;7.34;53.18;97850.47;4183405;28;19916;-73
2024/03/26 07:10:50;;;;;;;;;;;;;;;7.18;53.67;97837.25;4183494;28;19916;-71
2024/03/26 07:12:50;;;;;;;;;;;;;;;7.53;53.45;97836.84;4189076;28;19905;-70
2024/03/26 07:14:50;;;;;;;;;;;;;;;7.42;53.23;97846.88;4185671;28;19916;-69
2024/03/26 07:16:51;;;;;;;;;;;;;;;7.55;52.81;97840.16;4167042;28;19944;-70
2024/03/26 07:18:51;;;;;;;;;;;;;;;7.56;52.91;97841.81;4179761;28;19915;-72
2024/03/26 07:20:51;;;;;;;;;;;;;;;7.49;53.42;97834.56;4188204;28;19920;-70
2024/03/26 07:22:52;;;;;;;;;;;;;;;7.64;53.16;97839.91;4189226;28;19912;-71
2024/03/26 07:24:53;;;;;;;;;;;;;;;7.96;52.52;97831.81;4170151;28;20012;-70
2024/03/26 07:26:55;;;;;;;;;;;;;;;7.78;52.53;97838.28;4182870;28;19981;-75
2024/03/26 07:28:55;;;;;;;;;;;;;;;7.97;52.39;97828.13;4191868;28;19908;-70
2024/03/26 07:30:55;;;;;;;;;;;;;;;7.87;52.64;97825.72;4192879;28;20004;-71
2024/03/26 07:32:57;;;;;;;;;;;;;;;7.94;52.49;97829.31;4192996;28;19908;-70
2024/03/26 07:34:57;;;;;;;;;;;;;;;7.85;52.78;97830.38;4195535;28;19916;-72
2024/03/26 07:36:59;;;;;;;;;;;;;;;8.15;52.29;97817.13;4194840;28;19968;-70
2024/03/26 07:39:01;;;;;;;;;;;;;;;8.15;52.24;97814.44;4195071;28;19972;-74
2024/03/26 07:41:01;;;;;;;;;;;;;;;8.37;51.77;97812.69;4193948;28;19909;-71
2024/03/26 07:43:03;;;;;;;;;;;;;;;8.04;52.19;97807.75;4190675;28;19943;-70
2024/03/26 07:45:03;;;;;;;;;;;;;;;8.10;52.10;97808.88;4192776;28;19916;-71
2024/03/26 07:47:04;;;;;;;;;;;;;;;8.04;52.16;97798.94;4191994;28;19943;-72
2024/03/26 07:49:05;;;;;;;;;;;;;;;8.01;52.24;97816.09;4192463;28;19909;-71
2024/03/26 07:51:05;;;;;;;;;;;;;;;8.37;51.88;97817.19;4182266;28;20333;-71
2024/03/26 07:53:05;;;;;;;;;;;;;;;8.41;51.47;97815.81;4182415;28;19959;-70
2024/03/26 07:55:06;;;;;;;;;;;;;;;8.49;51.59;97813.09;4182025;28;19913;-70
2024/03/26 07:57:07;;;;;;;;;;;;;;;8.34;51.71;97806.91;4181588;28;19913;-69
2024/03/26 07:59:07;;;;;;;;;;;;;;;8.28;52.03;97801.34;4181619;28;19920;-71
2024/03/26 08:01:07;;;;;;;;;;;;;;;8.40;51.87;97807.00;4164391;28;20314;-71
2024/03/26 08:03:07;;;;;;;;;;;;;;;8.55;51.50;97803.50;4178102;28;19921;-71
2024/03/26 08:05:08;;;;;;;;;;;;;;;8.66;51.32;97803.03;4181860;28;19913;-70
2024/03/26 08:07:08;;;;;;;;;;;;;;;8.56;51.33;97803.34;4181738;28;20016;-70
2024/03/26 08:09:09;;;;;;;;;;;;;;;8.33;51.86;97806.09;4188925;28;19924;-71
2024/03/26 08:11:12;;;;;;;;;;;;;;;8.49;51.90;97799.78;4189356;28;19984;-70
2024/03/26 08:13:13;;;;;;;;;;;;;;;8.54;51.53;97802.69;4190477;28;19912;-71
2024/03/26 08:15:13;;;;;;;;;;;;;;;8.51;51.75;97789.75;4181182;28;19940;-71
2024/03/26 08:17:14;;;;;;;;;;;;;;;8.50;51.68;97790.75;4181822;28;20000;-71
2024/03/26 08:19:14;;;;;;;;;;;;;;;8.80;51.17;97789.88;4181634;28;19909;-70
2024/03/26 08:21:14;;;;;;;;;;;;;;;9.04;50.63;97792.16;4181631;28;19916;-71
2024/03/26 08:23:16;;;;;;;;;;;;;;;9.19;50.43;97800.09;4181806;28;19912;-71
2024/03/26 08:25:16;;;;;;;;;;;;;;;9.08;50.32;97797.13;4181930;28;19920;-71
2024/03/26 08:27:17;;;;;;;;;;;;;;;9.24;50.24;97796.84;4181475;28;19952;-71
2024/03/26 08:29:18;;;;;;;;;;;;;;;9.13;50.58;97784.88;4181869;28;19963;-71
2024/03/26 08:31:18;;;;;;;;;;;;;;;9.09;50.47;97780.94;4182809;28;19909;-70
2024/03/26 08:33:20;;;;;;;;;;;;;;;8.79;50.98;97777.56;4181730;28;19909;-72
2024/03/26 08:35:20;;;;;;;;;;;;;;;8.87;51.18;97772.94;4163931;28;19908;-70
2024/03/26 08:37:21;;;;;;;;;;;;;;;9.24;50.75;97766.72;4178995;28;19955;-70
2024/03/26 08:39:21;;;;;;;;;;;;;;;8.98;51.05;97773.44;4181582;28;19915;-71
2024/03/26 08:41:22;;;;;;;;;;;;;;;9.11;51.11;97780.75;4164088;28;19913;-70
2024/03/26 08:43:22;;;;;;;;;;;;;;;9.29;50.49;97783.78;4179462;28;19912;-69
2024/03/26 08:45:23;;;;;;;;;;;;;;;9.46;50.09;97799.50;4181289;28;19923;-69
2024/03/26 08:47:23;;;;;;;;;;;;;;;9.50;50.24;97803.44;4163659;28;19909;-70
2024/03/26 08:49:23;;;;;;;;;;;;;;;9.50;50.11;97796.28;4185046;28;19917;-70
2024/03/26 08:51:27;;;;;;;;;;;;;;;9.54;50.15;97791.38;4189239;28;19909;-72
2024/03/26 08:53:28;;;;;;;;;;;;;;;9.74;50.06;97791.50;4163921;28;20361;-71
2024/03/26 08:55:28;;;;;;;;;;;;;;;10.06;48.98;97788.44;4180854;28;19908;-69
2024/03/26 08:57:29;;;;;;;;;;;;;;;10.38;48.29;97789.66;4185802;28;20289;-70
2024/03/26 08:59:29;;;;;;;;;;;;;;;10.73;47.65;97778.06;4196807;28;19931;-70
2024/03/26 09:01:29;;;;;;;;;;;;;;;10.96;46.66;97780.38;4197166;28;19931;-70
2024/03/26 09:03:30;;;;;;;;;;;;;;;11.11;46.53;97785.53;4197480;28;19908;-72
2024/03/26 09:05:32;;;;;;;;;;;;;;;11.08;46.38;97775.28;4197881;28;19912;-70
2024/03/26 09:07:32;;;;;;;;;;;;;;;11.08;46.46;97769.94;4187186;28;19912;-72
2024/03/26 09:09:32;;;;;;;;;;;;;;;11.35;45.67;97769.94;4198568;28;19912;-71
2024/03/26 09:11:32;;;;;;;;;;;;;;;11.20;45.83;97778.16;4179228;28;19905;-72
2024/03/26 09:13:39;;;;;;;;;;;;;;;11.43;45.58;97774.28;4182094;28;19914;-72
2024/03/26 09:15:40;;;;;;;;;;;;;;;11.61;45.59;97773.63;4184317;28;19917;-70
2024/03/26 09:17:41;;;;;;;;;;;;;;;11.30;45.63;97767.88;4184045;28;19915;-71
2024/03/26 09:19:41;;;;;;;;;;;;;;;11.45;45.36;97765.00;4181483;28;19909;-70
2024/03/26 09:21:42;;;;;;;;;;;;;;;11.92;44.68;97764.94;4181556;28;19912;-71
2024/03/26 09:23:43;;;;;;;;;;;;;;;12.17;44.32;97761.63;4181389;28;20412;-70
2024/03/26 09:25:43;;;;;;;;;;;;;;;12.21;44.30;97754.78;4181725;28;19962;-73
2024/03/26 09:27:44;;;;;;;;;;;;;;;12.42;43.97;97747.50;4180722;28;19909;-71
2024/03/26 09:29:44;;;;;;;;;;;;;;;12.19;43.90;97748.81;4181815;28;19908;-72
2024/03/26 09:31:44;;;;;;;;;;;;;;;12.47;43.96;97743.16;4181508;28;20522;-71
2024/03/26 09:33:45;;;;;;;;;;;;;;;11.95;44.08;97743.09;4163086;28;20595;-72
2024/03/26 09:35:45;;;;;;;;;;;;;;;11.70;44.53;97751.81;4173639;28;19950;-71
2024/03/26 09:37:46;;;;;;;;;;;;;;;11.65;44.93;97748.13;4180911;28;19913;-72
2024/03/26 09:39:46;;;;;;;;;;;;;;;11.32;45.59;97749.78;4181290;28;19995;-71
2024/03/26 09:41:48;;;;;;;;;;;;;;;11.63;44.93;97748.31;4181074;28;19912;-71
2024/03/26 09:43:52;;;;;;;;;;;;;;;11.66;44.86;97744.41;4182302;28;19912;-71
2024/03/26 09:45:54;;;;;;;;;;;;;;;11.69;45.22;97746.66;4184266;28;19913;-71
2024/03/26 09:47:56;;;;;;;;;;;;;;;11.63;45.33;97742.13;4182896;28;20272;-71
2024/03/26 09:49:57;;;;;;;;;;;;;;;11.61;45.14;97747.72;4167231;28;19992;-71
2024/03/26 09:51:58;;;;;;;;;;;;;;;11.85;44.75;97745.41;4178449;28;19909;-72
2024/03/26 09:54:00;;;;;;;;;;;;;;;11.84;44.65;97736.56;4182620;28;19920;-71
2024/03/26 09:56:00;;;;;;;;;;;;;;;11.74;44.58;97740.66;4183356;28;19909;-71
2024/03/26 09:58:00;;;;;;;;;;;;;;;12.08;44.30;97725.41;4183269;28;19909;-72
2024/03/26 10:00:01;;;;;;;;;;;;;;;12.44;43.45;97732.06;4183996;28;20353;-71
2024/03/26 10:02:06;;;;;;;;;;;;;;;12.36;43.77;97732.28;4180903;28;19931;-71
2024/03/26 10:04:08;;;;;;;;;;;;;;;12.94;43.06;97716.06;4180463;28;19913;-70
2024/03/26 10:06:09;;;;;;;;;;;;;;;13.52;41.75;97714.19;4181150;28;19913;-71
2024/03/26 10:08:10;;;;;;;;;;;;;;;13.85;40.86;97702.31;4180962;28;19921;-71
2024/03/26 10:10:10;;;;;;;;;;;;;;;14.17;40.42;97699.44;4183693;28;19959;-71
2024/03/26 10:12:10;;;;;;;;;;;;;;;14.53;39.97;97688.06;4181456;28;19978;-72
2024/03/26 10:14:12;;;;;;;;;;;;;;;14.93;39.02;97679.41;4165674;28;20316;-72
2024/03/26 10:16:13;;;;;;;;;;;;;;;14.54;39.11;97678.94;4180283;28;19944;-71
2024/03/26 10:18:13;;;;;;;;;;;;;;;14.26;39.46;97681.16;4190105;28;19908;-73
2024/03/26 10:20:13;;;;;;;;;;;;;;;14.38;39.58;97675.84;4192333;28;19908;-72
2024/03/26 10:22:17;;;;;;;;;;;;;;;14.55;39.39;97676.03;4175361;28;19916;-76
2024/03/26 10:24:18;;;;;;;;;;;;;;;14.05;40.05;97674.41;4182641;28;20031;-71
2024/03/26 10:26:20;;;;;;;;;;;;;;;14.00;39.95;97667.03;4179920;28;19909;-70
2024/03/26 10:28:22;;;;;;;;;;;;;;;14.28;39.54;97662.13;4179504;28;19912;-71
2024/03/26 10:30:23;;;;;;;;;;;;;;;14.71;39.25;97650.41;4179906;28;19920;-71
2024/03/26 10:32:24;;;;;;;;;;;;;;;15.08;38.60;97646.69;4179591;28;19908;-72
2024/03/26 10:34:24;;;;;;;;;;;;;;;15.25;38.17;97638.75;4185607;28;19991;-71